sensor_id;sensor_type;location;lat;lon;timestamp;temperature;humidity
51884;DHT22;37915;53.254;6.598;2023-03-31T00:00:45;9.80;99.90
51884;DHT22;37915;53.254;6.598;2023-03-31T00:03:12;9.80;99.90
51884;DHT22;37915;53.254;6.598;2023-03-31T00:05:38;9.80;99.90
51884;DHT22;37915;53.254;6.598;2023-03-31T00:08:04;9.80;99.90
51884;DHT22;37915;53.254;6.598;2023-03-31T00:10:33;9.80;99.90
51884;DHT22;37915;53.254;6.598;2023-03-31T00:13:00;9.80;99.90
51884;DHT22;37915;53.254;6.598;2023-03-31T00:15:26;9.80;99.90
51884;DHT22;37915;53.254;6.598;2023-03-31T00:17:52;9.80;99.90
51884;DHT22;37915;53.254;6.598;2023-03-31T00:20:18;9.80;99.90
51884;DHT22;37915;53.254;6.598;2023-03-31T00:22:43;9.80;99.90
51884;DHT22;37915;53.254;6.598;2023-03-31T00:25:12;9.90;99.90
51884;DHT22;37915;53.254;6.598;2023-03-31T00:27:41;9.90;99.90
51884;DHT22;37915;53.254;6.598;2023-03-31T00:30:09;9.90;99.90
51884;DHT22;37915;53.254;6.598;2023-03-31T00:32:35;9.90;99.90
51884;DHT22;37915;53.254;6.598;2023-03-31T00:35:01;9.80;99.90
51884;DHT22;37915;53.254;6.598;2023-03-31T00:37:28;9.90;99.90
51884;DHT22;37915;53.254;6.598;2023-03-31T00:39:54;9.80;99.90
51884;DHT22;37915;53.254;6.598;2023-03-31T00:42:21;9.80;99.90
51884;DHT22;37915;53.254;6.598;2023-03-31T00:47:46;9.70;99.90
51884;DHT22;37915;53.254;6.598;2023-03-31T00:50:22;9.70;99.90
51884;DHT22;37915;53.254;6.598;2023-03-31T00:52:56;9.70;99.90
51884;DHT22;37915;53.254;6.598;2023-03-31T00:55:32;9.70;99.90
51884;DHT22;37915;53.254;6.598;2023-03-31T00:57:59;9.60;99.90
51884;DHT22;37915;53.254;6.598;2023-03-31T01:00:26;9.70;99.90
51884;DHT22;37915;53.254;6.598;2023-03-31T01:02:58;9.60;99.90
51884;DHT22;37915;53.254;6.598;2023-03-31T01:08:13;9.60;99.90
51884;DHT22;37915;53.254;6.598;2023-03-31T01:10:44;9.50;99.90
51884;DHT22;37915;53.254;6.598;2023-03-31T01:13:12;9.50;99.90
51884;DHT22;37915;53.254;6.598;2023-03-31T01:15:39;9.50;99.90
51884;DHT22;37915;53.254;6.598;2023-03-31T01:18:06;9.50;99.90
51884;DHT22;37915;53.254;6.598;2023-03-31T01:31:51;9.50;99.90
51884;DHT22;37915;53.254;6.598;2023-03-31T01:43:03;9.40;99.90
51884;DHT22;37915;53.254;6.598;2023-03-31T01:45:47;9.40;99.90
51884;DHT22;37915;53.254;6.598;2023-03-31T01:54:10;9.30;99.90
51884;DHT22;37915;53.254;6.598;2023-03-31T01:56:47;9.30;99.90
51884;DHT22;37915;53.254;6.598;2023-03-31T01:59:17;9.30;99.90
51884;DHT22;37915;53.254;6.598;2023-03-31T02:04:31;9.30;99.90
51884;DHT22;37915;53.254;6.598;2023-03-31T02:07:06;9.30;99.90
51884;DHT22;37915;53.254;6.598;2023-03-31T02:09:39;9.30;99.90
51884;DHT22;37915;53.254;6.598;2023-03-31T02:12:08;9.30;99.90
51884;DHT22;37915;53.254;6.598;2023-03-31T02:14:38;9.20;99.90
51884;DHT22;37915;53.254;6.598;2023-03-31T02:17:06;9.30;99.90
51884;DHT22;37915;53.254;6.598;2023-03-31T02:19:38;9.20;99.90
51884;DHT22;37915;53.254;6.598;2023-03-31T02:22:07;9.20;99.90
51884;DHT22;37915;53.254;6.598;2023-03-31T02:24:35;9.20;99.90
51884;DHT22;37915;53.254;6.598;2023-03-31T02:27:11;9.20;99.90
51884;DHT22;37915;53.254;6.598;2023-03-31T02:29:38;9.20;99.90
51884;DHT22;37915;53.254;6.598;2023-03-31T02:32:37;9.20;99.90
51884;DHT22;37915;53.254;6.598;2023-03-31T02:35:05;9.20;99.90
51884;DHT22;37915;53.254;6.598;2023-03-31T02:37:32;9.20;99.90
51884;DHT22;37915;53.254;6.598;2023-03-31T02:40:02;9.20;99.90
51884;DHT22;37915;53.254;6.598;2023-03-31T02:42:29;9.20;99.90
51884;DHT22;37915;53.254;6.598;2023-03-31T02:45:05;9.20;99.90
51884;DHT22;37915;53.254;6.598;2023-03-31T02:47:31;9.20;99.90
51884;DHT22;37915;53.254;6.598;2023-03-31T02:49:59;9.20;99.90
51884;DHT22;37915;53.254;6.598;2023-03-31T02:52:59;9.20;99.90
51884;DHT22;37915;53.254;6.598;2023-03-31T02:55:50;9.20;99.90
51884;DHT22;37915;53.254;6.598;2023-03-31T03:09:22;9.30;99.90
51884;DHT22;37915;53.254;6.598;2023-03-31T03:11:58;9.30;99.90
51884;DHT22;37915;53.254;6.598;2023-03-31T03:14:35;9.30;99.90
51884;DHT22;37915;53.254;6.598;2023-03-31T03:17:08;9.30;99.90
51884;DHT22;37915;53.254;6.598;2023-03-31T03:19:36;9.30;99.90
51884;DHT22;37915;53.254;6.598;2023-03-31T03:22:01;9.30;99.90
51884;DHT22;37915;53.254;6.598;2023-03-31T03:24:27;9.30;99.90
51884;DHT22;37915;53.254;6.598;2023-03-31T03:26:54;9.30;99.90
51884;DHT22;37915;53.254;6.598;2023-03-31T03:29:20;9.30;99.90
51884;DHT22;37915;53.254;6.598;2023-03-31T03:31:46;9.30;99.90
51884;DHT22;37915;53.254;6.598;2023-03-31T03:34:12;9.30;99.90
51884;DHT22;37915;53.254;6.598;2023-03-31T03:36:38;9.30;99.90
51884;DHT22;37915;53.254;6.598;2023-03-31T03:39:06;9.30;99.90
51884;DHT22;37915;53.254;6.598;2023-03-31T03:41:32;9.30;99.90
51884;DHT22;37915;53.254;6.598;2023-03-31T03:43:59;9.30;99.90
51884;DHT22;37915;53.254;6.598;2023-03-31T03:46:25;9.30;99.90
51884;DHT22;37915;53.254;6.598;2023-03-31T03:48:51;9.30;99.90
51884;DHT22;37915;53.254;6.598;2023-03-31T03:51:17;9.20;99.90
51884;DHT22;37915;53.254;6.598;2023-03-31T03:53:43;9.20;99.90
51884;DHT22;37915;53.254;6.598;2023-03-31T03:56:08;9.30;99.90
51884;DHT22;37915;53.254;6.598;2023-03-31T03:58:34;9.30;99.90
51884;DHT22;37915;53.254;6.598;2023-03-31T04:01:00;9.30;99.90
51884;DHT22;37915;53.254;6.598;2023-03-31T04:03:26;9.30;99.90
51884;DHT22;37915;53.254;6.598;2023-03-31T04:05:52;9.30;99.90
51884;DHT22;37915;53.254;6.598;2023-03-31T04:08:18;9.30;99.90
51884;DHT22;37915;53.254;6.598;2023-03-31T04:10:45;9.30;99.90
51884;DHT22;37915;53.254;6.598;2023-03-31T04:13:11;9.30;99.90
51884;DHT22;37915;53.254;6.598;2023-03-31T04:15:36;9.30;99.90
51884;DHT22;37915;53.254;6.598;2023-03-31T04:18:02;9.30;99.90
51884;DHT22;37915;53.254;6.598;2023-03-31T04:20:28;9.40;99.90
51884;DHT22;37915;53.254;6.598;2023-03-31T04:22:55;9.40;99.90
51884;DHT22;37915;53.254;6.598;2023-03-31T04:25:20;9.40;99.90
51884;DHT22;37915;53.254;6.598;2023-03-31T04:27:51;9.50;99.90
51884;DHT22;37915;53.254;6.598;2023-03-31T04:30:24;9.50;99.90
51884;DHT22;37915;53.254;6.598;2023-03-31T04:32:56;9.50;99.90
51884;DHT22;37915;53.254;6.598;2023-03-31T04:35:24;9.50;99.90
51884;DHT22;37915;53.254;6.598;2023-03-31T04:37:52;9.50;99.90
51884;DHT22;37915;53.254;6.598;2023-03-31T04:40:24;9.50;99.90
51884;DHT22;37915;53.254;6.598;2023-03-31T04:42:50;9.50;99.90
51884;DHT22;37915;53.254;6.598;2023-03-31T04:45:16;9.50;99.90
51884;DHT22;37915;53.254;6.598;2023-03-31T04:47:42;9.50;99.90
51884;DHT22;37915;53.254;6.598;2023-03-31T04:50:09;9.50;99.90
51884;DHT22;37915;53.254;6.598;2023-03-31T04:52:37;9.50;99.90
51884;DHT22;37915;53.254;6.598;2023-03-31T04:55:04;9.50;99.90
51884;DHT22;37915;53.254;6.598;2023-03-31T04:57:30;9.50;99.90
51884;DHT22;37915;53.254;6.598;2023-03-31T04:59:56;9.50;99.90
51884;DHT22;37915;53.254;6.598;2023-03-31T05:02:22;9.50;99.90
51884;DHT22;37915;53.254;6.598;2023-03-31T05:04:51;9.50;99.90
51884;DHT22;37915;53.254;6.598;2023-03-31T05:07:20;9.50;99.90
51884;DHT22;37915;53.254;6.598;2023-03-31T05:09:46;9.50;99.90
51884;DHT22;37915;53.254;6.598;2023-03-31T05:12:11;9.50;99.90
51884;DHT22;37915;53.254;6.598;2023-03-31T05:14:37;9.50;99.90
51884;DHT22;37915;53.254;6.598;2023-03-31T05:17:03;9.40;99.90
51884;DHT22;37915;53.254;6.598;2023-03-31T05:19:28;9.40;99.90
51884;DHT22;37915;53.254;6.598;2023-03-31T05:21:54;9.50;99.90
51884;DHT22;37915;53.254;6.598;2023-03-31T05:24:20;9.50;99.90
51884;DHT22;37915;53.254;6.598;2023-03-31T05:26:45;9.50;99.90
51884;DHT22;37915;53.254;6.598;2023-03-31T05:29:17;9.40;99.90
51884;DHT22;37915;53.254;6.598;2023-03-31T05:31:43;9.50;99.90
51884;DHT22;37915;53.254;6.598;2023-03-31T05:34:08;9.40;99.90
51884;DHT22;37915;53.254;6.598;2023-03-31T05:36:34;9.40;99.90
51884;DHT22;37915;53.254;6.598;2023-03-31T05:39:03;9.50;99.90
51884;DHT22;37915;53.254;6.598;2023-03-31T05:41:29;9.50;99.90
51884;DHT22;37915;53.254;6.598;2023-03-31T05:43:55;9.50;99.90
51884;DHT22;37915;53.254;6.598;2023-03-31T05:46:20;9.50;99.90
51884;DHT22;37915;53.254;6.598;2023-03-31T05:48:46;9.50;99.90
51884;DHT22;37915;53.254;6.598;2023-03-31T05:51:12;9.50;99.90
51884;DHT22;37915;53.254;6.598;2023-03-31T05:53:38;9.50;99.90
51884;DHT22;37915;53.254;6.598;2023-03-31T05:56:04;9.50;99.90
51884;DHT22;37915;53.254;6.598;2023-03-31T05:58:33;9.50;99.90
51884;DHT22;37915;53.254;6.598;2023-03-31T06:01:01;9.60;99.90
51884;DHT22;37915;53.254;6.598;2023-03-31T06:03:31;9.50;99.90
51884;DHT22;37915;53.254;6.598;2023-03-31T06:05:57;9.60;99.90
51884;DHT22;37915;53.254;6.598;2023-03-31T06:08:23;9.60;99.90
51884;DHT22;37915;53.254;6.598;2023-03-31T06:10:49;9.60;99.90
51884;DHT22;37915;53.254;6.598;2023-03-31T06:13:15;9.60;99.90
51884;DHT22;37915;53.254;6.598;2023-03-31T06:15:41;9.60;99.90
51884;DHT22;37915;53.254;6.598;2023-03-31T06:18:06;9.60;99.90
51884;DHT22;37915;53.254;6.598;2023-03-31T06:20:35;9.60;99.90
51884;DHT22;37915;53.254;6.598;2023-03-31T06:23:01;9.60;99.90
51884;DHT22;37915;53.254;6.598;2023-03-31T06:25:27;9.60;99.90
51884;DHT22;37915;53.254;6.598;2023-03-31T06:27:52;9.60;99.90
51884;DHT22;37915;53.254;6.598;2023-03-31T06:30:18;9.60;99.90
51884;DHT22;37915;53.254;6.598;2023-03-31T06:32:44;9.60;99.90
51884;DHT22;37915;53.254;6.598;2023-03-31T06:35:09;9.60;99.90
51884;DHT22;37915;53.254;6.598;2023-03-31T06:37:35;9.60;99.90
51884;DHT22;37915;53.254;6.598;2023-03-31T06:40:01;9.60;99.90
51884;DHT22;37915;53.254;6.598;2023-03-31T06:42:27;9.60;99.90
51884;DHT22;37915;53.254;6.598;2023-03-31T06:44:52;9.60;99.90
51884;DHT22;37915;53.254;6.598;2023-03-31T06:47:20;9.60;99.90
51884;DHT22;37915;53.254;6.598;2023-03-31T06:49:45;9.60;99.90
51884;DHT22;37915;53.254;6.598;2023-03-31T06:52:11;9.60;99.90
51884;DHT22;37915;53.254;6.598;2023-03-31T06:54:37;9.60;99.90
51884;DHT22;37915;53.254;6.598;2023-03-31T06:57:02;9.60;99.90
51884;DHT22;37915;53.254;6.598;2023-03-31T06:59:28;9.60;99.90
51884;DHT22;37915;53.254;6.598;2023-03-31T07:01:54;9.70;99.90
51884;DHT22;37915;53.254;6.598;2023-03-31T07:04:19;9.70;99.90
51884;DHT22;37915;53.254;6.598;2023-03-31T07:06:45;9.70;99.90
51884;DHT22;37915;53.254;6.598;2023-03-31T07:09:11;9.70;99.90
51884;DHT22;37915;53.254;6.598;2023-03-31T07:11:36;9.70;99.90
51884;DHT22;37915;53.254;6.598;2023-03-31T07:14:02;9.70;99.90
51884;DHT22;37915;53.254;6.598;2023-03-31T07:16:28;9.70;99.90
51884;DHT22;37915;53.254;6.598;2023-03-31T07:18:53;9.70;99.90
51884;DHT22;37915;53.254;6.598;2023-03-31T07:21:24;9.70;99.90
51884;DHT22;37915;53.254;6.598;2023-03-31T07:23:50;9.70;99.90
51884;DHT22;37915;53.254;6.598;2023-03-31T07:26:15;9.60;99.90
51884;DHT22;37915;53.254;6.598;2023-03-31T07:28:41;9.70;99.90
51884;DHT22;37915;53.254;6.598;2023-03-31T07:31:12;9.70;99.90
51884;DHT22;37915;53.254;6.598;2023-03-31T07:33:37;9.70;99.90
51884;DHT22;37915;53.254;6.598;2023-03-31T07:36:04;9.70;99.90
51884;DHT22;37915;53.254;6.598;2023-03-31T07:38:30;9.60;99.90
51884;DHT22;37915;53.254;6.598;2023-03-31T07:40:56;9.70;99.90
51884;DHT22;37915;53.254;6.598;2023-03-31T07:43:21;9.70;99.90
51884;DHT22;37915;53.254;6.598;2023-03-31T07:45:47;9.70;99.90
51884;DHT22;37915;53.254;6.598;2023-03-31T07:48:13;9.80;99.90
51884;DHT22;37915;53.254;6.598;2023-03-31T07:50:39;9.80;99.90
51884;DHT22;37915;53.254;6.598;2023-03-31T07:53:04;9.80;99.90
51884;DHT22;37915;53.254;6.598;2023-03-31T07:55:30;9.80;99.90
51884;DHT22;37915;53.254;6.598;2023-03-31T07:57:56;9.80;99.90
51884;DHT22;37915;53.254;6.598;2023-03-31T08:00:22;9.80;99.90
51884;DHT22;37915;53.254;6.598;2023-03-31T08:02:48;9.80;99.90
51884;DHT22;37915;53.254;6.598;2023-03-31T08:05:16;9.80;99.90
51884;DHT22;37915;53.254;6.598;2023-03-31T08:07:44;9.80;99.90
51884;DHT22;37915;53.254;6.598;2023-03-31T08:10:19;9.80;99.90
51884;DHT22;37915;53.254;6.598;2023-03-31T08:12:45;9.80;99.90
51884;DHT22;37915;53.254;6.598;2023-03-31T08:15:11;9.80;99.90
51884;DHT22;37915;53.254;6.598;2023-03-31T08:17:38;9.80;99.90
51884;DHT22;37915;53.254;6.598;2023-03-31T08:20:04;9.80;99.90
51884;DHT22;37915;53.254;6.598;2023-03-31T08:22:36;9.80;99.90
51884;DHT22;37915;53.254;6.598;2023-03-31T08:25:02;9.80;99.90
51884;DHT22;37915;53.254;6.598;2023-03-31T08:27:32;9.80;99.90
51884;DHT22;37915;53.254;6.598;2023-03-31T08:29:58;9.80;99.90
51884;DHT22;37915;53.254;6.598;2023-03-31T08:32:33;9.80;99.90
51884;DHT22;37915;53.254;6.598;2023-03-31T08:34:59;9.80;99.90
51884;DHT22;37915;53.254;6.598;2023-03-31T08:37:25;9.80;99.90
51884;DHT22;37915;53.254;6.598;2023-03-31T08:39:54;9.70;99.90
51884;DHT22;37915;53.254;6.598;2023-03-31T08:45:06;9.80;99.90
51884;DHT22;37915;53.254;6.598;2023-03-31T08:47:36;9.80;99.90
51884;DHT22;37915;53.254;6.598;2023-03-31T08:50:15;9.70;99.90
51884;DHT22;37915;53.254;6.598;2023-03-31T08:52:49;9.70;99.90
51884;DHT22;37915;53.254;6.598;2023-03-31T08:55:21;9.70;99.90
51884;DHT22;37915;53.254;6.598;2023-03-31T08:58:01;9.80;99.90
51884;DHT22;37915;53.254;6.598;2023-03-31T09:00:38;9.80;99.90
51884;DHT22;37915;53.254;6.598;2023-03-31T09:03:15;9.80;99.90
51884;DHT22;37915;53.254;6.598;2023-03-31T09:05:59;9.80;99.90
51884;DHT22;37915;53.254;6.598;2023-03-31T09:08:32;9.80;99.90
51884;DHT22;37915;53.254;6.598;2023-03-31T09:11:01;9.80;99.90
51884;DHT22;37915;53.254;6.598;2023-03-31T09:18:40;10.00;99.90
51884;DHT22;37915;53.254;6.598;2023-03-31T09:26:38;10.10;99.90
51884;DHT22;37915;53.254;6.598;2023-03-31T09:29:06;10.10;99.90
51884;DHT22;37915;53.254;6.598;2023-03-31T09:31:34;10.20;99.90
51884;DHT22;37915;53.254;6.598;2023-03-31T09:34:12;10.20;99.90
51884;DHT22;37915;53.254;6.598;2023-03-31T09:36:38;10.20;99.90
51884;DHT22;37915;53.254;6.598;2023-03-31T09:39:04;10.20;99.90
51884;DHT22;37915;53.254;6.598;2023-03-31T09:41:29;10.20;99.90
51884;DHT22;37915;53.254;6.598;2023-03-31T09:43:55;10.30;99.90
51884;DHT22;37915;53.254;6.598;2023-03-31T09:46:29;10.30;99.90
51884;DHT22;37915;53.254;6.598;2023-03-31T09:49:13;10.30;99.90
51884;DHT22;37915;53.254;6.598;2023-03-31T09:51:43;10.40;99.90
51884;DHT22;37915;53.254;6.598;2023-03-31T09:57:14;10.40;99.90
51884;DHT22;37915;53.254;6.598;2023-03-31T09:59:40;10.50;99.90
51884;DHT22;37915;53.254;6.598;2023-03-31T10:04:53;10.60;99.90
51884;DHT22;37915;53.254;6.598;2023-03-31T10:07:23;10.70;99.90
51884;DHT22;37915;53.254;6.598;2023-03-31T10:09:50;10.70;99.90
51884;DHT22;37915;53.254;6.598;2023-03-31T10:12:19;10.80;99.90
51884;DHT22;37915;53.254;6.598;2023-03-31T10:14:50;10.90;99.90
51884;DHT22;37915;53.254;6.598;2023-03-31T10:17:21;11.00;99.90
51884;DHT22;37915;53.254;6.598;2023-03-31T10:19:57;11.10;99.90
51884;DHT22;37915;53.254;6.598;2023-03-31T10:22:28;11.20;99.90
51884;DHT22;37915;53.254;6.598;2023-03-31T10:24:54;11.30;99.90
51884;DHT22;37915;53.254;6.598;2023-03-31T10:27:31;11.30;99.90
51884;DHT22;37915;53.254;6.598;2023-03-31T10:29:59;11.40;99.90
51884;DHT22;37915;53.254;6.598;2023-03-31T10:32:33;11.50;99.90
51884;DHT22;37915;53.254;6.598;2023-03-31T10:37:50;11.50;99.90
51884;DHT22;37915;53.254;6.598;2023-03-31T10:40:22;11.50;99.90
51884;DHT22;37915;53.254;6.598;2023-03-31T10:43:02;11.50;99.90
51884;DHT22;37915;53.254;6.598;2023-03-31T10:45:30;11.50;99.90
51884;DHT22;37915;53.254;6.598;2023-03-31T10:48:00;11.40;99.90
51884;DHT22;37915;53.254;6.598;2023-03-31T10:50:32;11.30;99.90
51884;DHT22;37915;53.254;6.598;2023-03-31T10:53:12;11.20;99.90
51884;DHT22;37915;53.254;6.598;2023-03-31T11:00:51;11.10;99.90
51884;DHT22;37915;53.254;6.598;2023-03-31T11:07:08;11.40;99.90
51884;DHT22;37915;53.254;6.598;2023-03-31T11:20:55;11.70;99.90
51884;DHT22;37915;53.254;6.598;2023-03-31T11:23:41;11.80;99.90
51884;DHT22;37915;53.254;6.598;2023-03-31T11:28:53;12.00;99.90
51884;DHT22;37915;53.254;6.598;2023-03-31T11:42:19;12.60;99.90
51884;DHT22;37915;53.254;6.598;2023-03-31T11:44:53;12.60;99.90
51884;DHT22;37915;53.254;6.598;2023-03-31T11:47:24;12.70;99.90
51884;DHT22;37915;53.254;6.598;2023-03-31T11:49:59;12.80;99.90
51884;DHT22;37915;53.254;6.598;2023-03-31T11:52:33;13.00;99.90
51884;DHT22;37915;53.254;6.598;2023-03-31T11:55:18;13.10;99.90
51884;DHT22;37915;53.254;6.598;2023-03-31T11:57:54;13.20;99.90
51884;DHT22;37915;53.254;6.598;2023-03-31T12:00:29;13.20;99.90
51884;DHT22;37915;53.254;6.598;2023-03-31T12:03:10;13.20;99.90
51884;DHT22;37915;53.254;6.598;2023-03-31T12:05:56;13.10;99.90
51884;DHT22;37915;53.254;6.598;2023-03-31T12:11:23;13.20;99.90
51884;DHT22;37915;53.254;6.598;2023-03-31T12:19:10;12.80;99.90
51884;DHT22;37915;53.254;6.598;2023-03-31T12:21:42;12.60;99.90
51884;DHT22;37915;53.254;6.598;2023-03-31T12:24:12;12.50;99.90
51884;DHT22;37915;53.254;6.598;2023-03-31T12:29:28;12.30;99.90
51884;DHT22;37915;53.254;6.598;2023-03-31T12:31:58;12.20;99.90
51884;DHT22;37915;53.254;6.598;2023-03-31T12:34:27;12.20;99.90
51884;DHT22;37915;53.254;6.598;2023-03-31T12:45:29;11.80;99.90
51884;DHT22;37915;53.254;6.598;2023-03-31T12:48:31;11.70;99.90
51884;DHT22;37915;53.254;6.598;2023-03-31T12:56:23;11.70;99.90
51884;DHT22;37915;53.254;6.598;2023-03-31T12:58:48;11.80;99.90
51884;DHT22;37915;53.254;6.598;2023-03-31T13:01:20;12.00;99.90
51884;DHT22;37915;53.254;6.598;2023-03-31T13:04:20;12.20;99.90
51884;DHT22;37915;53.254;6.598;2023-03-31T13:06:52;12.50;99.90
51884;DHT22;37915;53.254;6.598;2023-03-31T13:11:45;12.90;99.90
51884;DHT22;37915;53.254;6.598;2023-03-31T13:16:52;13.00;99.90
51884;DHT22;37915;53.254;6.598;2023-03-31T13:19:34;12.90;99.90
51884;DHT22;37915;53.254;6.598;2023-03-31T13:22:02;12.90;99.90
51884;DHT22;37915;53.254;6.598;2023-03-31T13:24:30;12.90;99.90
51884;DHT22;37915;53.254;6.598;2023-03-31T13:27:34;12.90;99.90
51884;DHT22;37915;53.254;6.598;2023-03-31T13:29:59;12.90;99.90
51884;DHT22;37915;53.254;6.598;2023-03-31T13:32:26;13.00;99.90
51884;DHT22;37915;53.254;6.598;2023-03-31T13:35:30;13.10;99.90
51884;DHT22;37915;53.254;6.598;2023-03-31T13:41:20;13.40;99.90
51884;DHT22;37915;53.254;6.598;2023-03-31T13:44:10;13.40;99.90
51884;DHT22;37915;53.254;6.598;2023-03-31T14:06:40;12.50;99.90
51884;DHT22;37915;53.254;6.598;2023-03-31T14:09:14;12.40;99.90
51884;DHT22;37915;53.254;6.598;2023-03-31T14:11:41;12.30;99.90
51884;DHT22;37915;53.254;6.598;2023-03-31T14:14:15;12.10;99.90
51884;DHT22;37915;53.254;6.598;2023-03-31T14:22:29;11.90;99.90
51884;DHT22;37915;53.254;6.598;2023-03-31T14:33:05;12.30;99.90
51884;DHT22;37915;53.254;6.598;2023-03-31T14:35:35;12.30;99.90
51884;DHT22;37915;53.254;6.598;2023-03-31T14:38:17;12.40;99.90
51884;DHT22;37915;53.254;6.598;2023-03-31T14:40:49;12.30;99.90
51884;DHT22;37915;53.254;6.598;2023-03-31T14:43:20;12.20;99.90
51884;DHT22;37915;53.254;6.598;2023-03-31T14:46:01;12.20;99.90
51884;DHT22;37915;53.254;6.598;2023-03-31T14:48:29;12.20;99.90
51884;DHT22;37915;53.254;6.598;2023-03-31T14:50:57;12.20;99.90
51884;DHT22;37915;53.254;6.598;2023-03-31T14:53:26;12.30;99.90
51884;DHT22;37915;53.254;6.598;2023-03-31T14:56:02;12.50;99.90
51884;DHT22;37915;53.254;6.598;2023-03-31T14:58:33;12.70;99.90
51884;DHT22;37915;53.254;6.598;2023-03-31T15:01:02;12.90;99.90
51884;DHT22;37915;53.254;6.598;2023-03-31T15:03:30;13.00;99.90
51884;DHT22;37915;53.254;6.598;2023-03-31T15:05:57;13.10;99.90
51884;DHT22;37915;53.254;6.598;2023-03-31T15:08:24;13.00;99.90
51884;DHT22;37915;53.254;6.598;2023-03-31T15:10:54;13.00;99.90
51884;DHT22;37915;53.254;6.598;2023-03-31T15:15:49;13.00;99.90
51884;DHT22;37915;53.254;6.598;2023-03-31T15:18:15;12.90;99.90
51884;DHT22;37915;53.254;6.598;2023-03-31T15:20:42;13.00;99.90
51884;DHT22;37915;53.254;6.598;2023-03-31T15:23:27;13.00;99.90
51884;DHT22;37915;53.254;6.598;2023-03-31T15:25:57;12.80;99.90
51884;DHT22;37915;53.254;6.598;2023-03-31T15:28:27;12.80;99.90
51884;DHT22;37915;53.254;6.598;2023-03-31T15:30:54;12.70;99.90
51884;DHT22;37915;53.254;6.598;2023-03-31T15:33:32;12.60;99.90
51884;DHT22;37915;53.254;6.598;2023-03-31T15:35:58;12.50;99.90
51884;DHT22;37915;53.254;6.598;2023-03-31T15:38:26;12.50;99.90
51884;DHT22;37915;53.254;6.598;2023-03-31T15:40:54;12.40;99.90
51884;DHT22;37915;53.254;6.598;2023-03-31T15:43:29;12.30;99.90
51884;DHT22;37915;53.254;6.598;2023-03-31T15:46:00;12.30;99.90
51884;DHT22;37915;53.254;6.598;2023-03-31T15:48:35;12.30;99.90
51884;DHT22;37915;53.254;6.598;2023-03-31T15:51:06;12.30;99.90
51884;DHT22;37915;53.254;6.598;2023-03-31T15:53:47;12.20;99.90
51884;DHT22;37915;53.254;6.598;2023-03-31T15:56:34;12.20;99.90
51884;DHT22;37915;53.254;6.598;2023-03-31T15:59:21;12.10;99.90
51884;DHT22;37915;53.254;6.598;2023-03-31T16:01:48;12.10;99.90
51884;DHT22;37915;53.254;6.598;2023-03-31T16:04:15;12.10;99.90
51884;DHT22;37915;53.254;6.598;2023-03-31T16:06:48;12.00;99.90
51884;DHT22;37915;53.254;6.598;2023-03-31T16:09:27;11.90;99.90
51884;DHT22;37915;53.254;6.598;2023-03-31T16:11:59;11.90;99.90
51884;DHT22;37915;53.254;6.598;2023-03-31T16:14:37;11.90;99.90
51884;DHT22;37915;53.254;6.598;2023-03-31T16:17:23;11.90;99.90
51884;DHT22;37915;53.254;6.598;2023-03-31T16:19:55;11.70;99.90
51884;DHT22;37915;53.254;6.598;2023-03-31T16:22:25;11.90;99.90
51884;DHT22;37915;53.254;6.598;2023-03-31T16:24:52;11.90;99.90
51884;DHT22;37915;53.254;6.598;2023-03-31T16:27:18;11.90;99.90
51884;DHT22;37915;53.254;6.598;2023-03-31T16:29:44;11.90;99.90
51884;DHT22;37915;53.254;6.598;2023-03-31T16:32:15;11.90;99.90
51884;DHT22;37915;53.254;6.598;2023-03-31T16:34:59;11.90;99.90
51884;DHT22;37915;53.254;6.598;2023-03-31T16:37:26;11.80;99.90
51884;DHT22;37915;53.254;6.598;2023-03-31T16:39:52;11.80;99.90
51884;DHT22;37915;53.254;6.598;2023-03-31T16:42:18;11.80;99.90
51884;DHT22;37915;53.254;6.598;2023-03-31T16:44:45;11.90;99.90
51884;DHT22;37915;53.254;6.598;2023-03-31T16:47:11;11.90;99.90
51884;DHT22;37915;53.254;6.598;2023-03-31T16:49:38;11.80;99.90
51884;DHT22;37915;53.254;6.598;2023-03-31T16:52:03;11.80;99.90
51884;DHT22;37915;53.254;6.598;2023-03-31T16:54:30;11.80;99.90
51884;DHT22;37915;53.254;6.598;2023-03-31T16:56:56;11.80;99.90
51884;DHT22;37915;53.254;6.598;2023-03-31T16:59:22;11.80;99.90
51884;DHT22;37915;53.254;6.598;2023-03-31T17:01:49;11.80;99.90
51884;DHT22;37915;53.254;6.598;2023-03-31T17:04:15;11.70;99.90
51884;DHT22;37915;53.254;6.598;2023-03-31T17:06:41;11.70;99.90
51884;DHT22;37915;53.254;6.598;2023-03-31T17:09:07;11.70;99.90
51884;DHT22;37915;53.254;6.598;2023-03-31T17:11:32;11.60;99.90
51884;DHT22;37915;53.254;6.598;2023-03-31T17:13:58;11.60;99.90
51884;DHT22;37915;53.254;6.598;2023-03-31T17:16:25;11.60;99.90
51884;DHT22;37915;53.254;6.598;2023-03-31T17:18:51;11.50;99.90
51884;DHT22;37915;53.254;6.598;2023-03-31T17:21:17;11.50;99.90
51884;DHT22;37915;53.254;6.598;2023-03-31T17:23:44;11.50;99.90
51884;DHT22;37915;53.254;6.598;2023-03-31T17:26:11;11.50;99.90
51884;DHT22;37915;53.254;6.598;2023-03-31T17:28:37;11.40;99.90
51884;DHT22;37915;53.254;6.598;2023-03-31T17:31:14;11.40;99.90
51884;DHT22;37915;53.254;6.598;2023-03-31T17:33:41;11.40;99.90
51884;DHT22;37915;53.254;6.598;2023-03-31T17:36:08;11.40;99.90
51884;DHT22;37915;53.254;6.598;2023-03-31T17:38:34;11.30;99.90
51884;DHT22;37915;53.254;6.598;2023-03-31T17:41:09;11.20;99.90
51884;DHT22;37915;53.254;6.598;2023-03-31T17:43:35;11.10;99.90
51884;DHT22;37915;53.254;6.598;2023-03-31T17:46:02;11.10;99.90
51884;DHT22;37915;53.254;6.598;2023-03-31T17:48:28;11.00;99.90
51884;DHT22;37915;53.254;6.598;2023-03-31T17:50:55;11.00;99.90
51884;DHT22;37915;53.254;6.598;2023-03-31T17:53:20;10.90;99.90
51884;DHT22;37915;53.254;6.598;2023-03-31T17:55:46;10.90;99.90
51884;DHT22;37915;53.254;6.598;2023-03-31T17:58:12;10.90;99.90
51884;DHT22;37915;53.254;6.598;2023-03-31T18:00:38;10.80;99.90
51884;DHT22;37915;53.254;6.598;2023-03-31T18:03:04;10.80;99.90
51884;DHT22;37915;53.254;6.598;2023-03-31T18:05:30;10.80;99.90
51884;DHT22;37915;53.254;6.598;2023-03-31T18:07:57;10.80;99.90
51884;DHT22;37915;53.254;6.598;2023-03-31T18:10:23;10.80;99.90
51884;DHT22;37915;53.254;6.598;2023-03-31T18:12:50;10.80;99.90
51884;DHT22;37915;53.254;6.598;2023-03-31T18:15:16;10.70;99.90
51884;DHT22;37915;53.254;6.598;2023-03-31T18:17:41;10.70;99.90
51884;DHT22;37915;53.254;6.598;2023-03-31T18:20:08;10.70;99.90
51884;DHT22;37915;53.254;6.598;2023-03-31T18:22:34;10.70;99.90
51884;DHT22;37915;53.254;6.598;2023-03-31T18:25:00;10.70;99.90
51884;DHT22;37915;53.254;6.598;2023-03-31T18:27:26;10.70;99.90
51884;DHT22;37915;53.254;6.598;2023-03-31T18:29:52;10.70;99.90
51884;DHT22;37915;53.254;6.598;2023-03-31T18:32:18;10.70;99.90
51884;DHT22;37915;53.254;6.598;2023-03-31T18:34:44;10.60;99.90
51884;DHT22;37915;53.254;6.598;2023-03-31T18:37:09;10.60;99.90
51884;DHT22;37915;53.254;6.598;2023-03-31T18:39:36;10.60;99.90
51884;DHT22;37915;53.254;6.598;2023-03-31T18:42:02;10.60;99.90
51884;DHT22;37915;53.254;6.598;2023-03-31T18:44:28;10.60;99.90